createdAt,value
2022-08-19T00:01:56.826Z,7.85
2022-08-19T00:04:28.221Z,9.33
2022-08-19T00:06:58.682Z,7.90
2022-08-19T00:09:27.811Z,8.50
2022-08-19T00:11:59.362Z,8.20
2022-08-19T00:14:31.442Z,9.27
2022-08-19T00:16:59.857Z,8.93
2022-08-19T00:19:28.221Z,13.97
2022-08-19T00:21:57.980Z,10.00
2022-08-19T00:24:26.662Z,8.50
2022-08-19T00:26:56.200Z,7.82
2022-08-19T00:29:25.964Z,11.15
2022-08-19T00:31:55.736Z,7.75
2022-08-19T00:34:24.787Z,7.68
2022-08-19T00:36:53.276Z,7.33
2022-08-19T00:39:23.274Z,9.82
2022-08-19T00:41:52.419Z,8.85
2022-08-19T00:44:27.105Z,7.32
2022-08-19T00:46:58.200Z,8.40
2022-08-19T00:49:31.774Z,11.90
2022-08-19T00:52:03.921Z,9.00
2022-08-19T00:54:34.206Z,8.93
2022-08-19T00:57:07.174Z,11.32
2022-08-19T01:00:00.906Z,9.38
2022-08-19T01:02:29.256Z,8.15
2022-08-19T01:04:58.151Z,7.63
2022-08-19T01:07:26.646Z,7.43
2022-08-19T01:09:56.518Z,12.90
2022-08-19T01:12:25.388Z,6.05
2022-08-19T01:14:54.575Z,8.00
2022-08-19T01:17:23.499Z,8.52
2022-08-19T01:19:51.959Z,9.40
2022-08-19T01:22:33.483Z,13.77
2022-08-19T01:25:03.659Z,11.52
2022-08-19T01:27:43.129Z,11.57
2022-08-19T01:30:14.769Z,13.00
2022-08-19T01:32:44.414Z,8.15
2022-08-19T01:35:14.646Z,8.25
2022-08-19T01:37:57.113Z,9.77
2022-08-19T01:40:28.824Z,9.65
2022-08-19T01:42:57.730Z,9.52
2022-08-19T01:45:28.662Z,10.25
2022-08-19T01:48:01.692Z,8.68
2022-08-19T01:50:32.010Z,11.27
2022-08-19T01:53:06.985Z,12.63
2022-08-19T01:55:40.647Z,12.15
2022-08-19T01:58:13.588Z,10.87
2022-08-19T02:00:42.548Z,12.30
2022-08-19T02:03:12.451Z,9.27
2022-08-19T02:05:42.266Z,13.50
2022-08-19T02:08:12.947Z,10.75
2022-08-19T02:10:43.410Z,10.25
2022-08-19T02:13:12.549Z,13.00
2022-08-19T02:15:40.959Z,10.27
2022-08-19T02:18:09.496Z,12.05
2022-08-19T02:20:39.658Z,8.18
2022-08-19T02:23:13.580Z,9.05
2022-08-19T02:25:47.310Z,10.98
2022-08-19T02:28:18.748Z,10.15
2022-08-19T02:30:49.498Z,12.60
2022-08-19T02:33:18.596Z,9.73
2022-08-19T02:35:48.338Z,9.98
2022-08-19T02:38:29.156Z,9.73
2022-08-19T02:41:01.014Z,8.70
2022-08-19T02:43:33.665Z,9.82
2022-08-19T02:46:02.947Z,13.35
2022-08-19T02:48:34.008Z,8.60
2022-08-19T02:51:02.511Z,13.45
2022-08-19T02:53:31.464Z,9.83
2022-08-19T02:56:01.498Z,7.57
2022-08-19T02:58:30.147Z,13.17
2022-08-19T03:00:59.506Z,8.32
2022-08-19T03:03:28.367Z,7.95
2022-08-19T03:06:09.934Z,10.40
2022-08-19T03:08:39.364Z,9.77
2022-08-19T03:11:14.740Z,8.98
2022-08-19T03:13:44.315Z,10.85
2022-08-19T03:16:12.968Z,10.88
2022-08-19T03:18:41.485Z,11.67
2022-08-19T03:21:12.268Z,9.85
2022-08-19T03:23:41.216Z,10.15
2022-08-19T03:26:16.793Z,10.60
2022-08-19T03:28:51.726Z,13.00
2022-08-19T03:31:43.282Z,9.00
2022-08-19T03:34:15.383Z,9.38
2022-08-19T03:36:43.722Z,6.38
2022-08-19T03:39:13.070Z,10.77
2022-08-19T03:41:46.564Z,9.57
2022-08-19T03:44:20.725Z,6.43
2022-08-19T03:46:50.799Z,11.60
2022-08-19T03:49:20.272Z,8.70
2022-08-19T03:51:51.278Z,7.53
2022-08-19T03:54:22.074Z,8.23
2022-08-19T03:56:53.477Z,8.52
2022-08-19T03:59:27.029Z,9.13
2022-08-19T04:01:56.383Z,9.33
2022-08-19T04:04:25.520Z,9.20
2022-08-19T04:06:57.856Z,9.65
2022-08-19T04:09:26.836Z,7.53
2022-08-19T04:11:58.265Z,6.03
2022-08-19T04:14:29.424Z,9.77
2022-08-19T04:16:58.387Z,8.85
2022-08-19T04:19:27.309Z,8.60
2022-08-19T04:21:56.827Z,10.25
2022-08-19T04:24:25.856Z,7.47
2022-08-19T04:26:54.304Z,6.78
2022-08-19T04:29:28.042Z,3.80
2022-08-19T04:31:58.197Z,6.03
2022-08-19T04:34:29.692Z,6.45
2022-08-19T04:36:59.993Z,8.20
2022-08-19T04:39:45.832Z,8.80
2022-08-19T04:42:31.706Z,7.78
2022-08-19T04:45:01.874Z,7.75
2022-08-19T04:47:47.616Z,7.55
2022-08-19T04:50:20.980Z,7.73
2022-08-19T04:52:49.335Z,5.63
2022-08-19T04:55:17.745Z,8.27
2022-08-19T04:57:46.011Z,5.13
2022-08-19T05:00:16.110Z,8.27
2022-08-19T05:02:44.508Z,7.03
2022-08-19T05:05:13.596Z,8.00
2022-08-19T05:07:41.906Z,7.10
2022-08-19T05:10:10.835Z,6.50
2022-08-19T05:12:39.230Z,5.45
2022-08-19T05:15:09.565Z,5.55
2022-08-19T05:17:59.366Z,7.07
2022-08-19T05:20:45.053Z,7.07
2022-08-19T05:23:21.851Z,4.03
2022-08-19T05:25:51.449Z,6.07
2022-08-19T05:28:20.715Z,7.70
2022-08-19T05:30:49.462Z,6.75
2022-08-19T05:33:19.859Z,6.35
2022-08-19T05:35:49.432Z,6.88
2022-08-19T05:38:18.247Z,5.00
2022-08-19T05:40:50.622Z,5.90
2022-08-19T05:43:19.249Z,6.13
2022-08-19T05:45:48.118Z,6.15
2022-08-19T05:48:18.490Z,7.32
2022-08-19T05:50:51.359Z,8.10
2022-08-19T05:53:20.249Z,8.73
2022-08-19T05:55:48.828Z,5.60
2022-08-19T05:58:17.433Z,4.20
2022-08-19T06:00:46.636Z,7.78
2022-08-19T06:03:14.950Z,9.15
2022-08-19T06:05:52.027Z,5.15
2022-08-19T06:08:34.352Z,3.50
2022-08-19T06:11:20.964Z,5.75
2022-08-19T06:13:52.175Z,4.97
2022-08-19T06:16:27.956Z,4.25
2022-08-19T06:18:57.992Z,7.57
2022-08-19T06:21:29.139Z,8.40
2022-08-19T06:24:00.679Z,4.65
2022-08-19T06:26:29.776Z,9.52
2022-08-19T06:28:58.211Z,5.57
2022-08-19T06:31:30.222Z,3.58
2022-08-19T06:33:58.606Z,4.93
2022-08-19T06:36:32.702Z,4.97
2022-08-19T06:39:03.650Z,7.00
2022-08-19T06:41:32.518Z,3.40
2022-08-19T06:44:00.777Z,5.25
2022-08-19T06:46:29.576Z,4.95
2022-08-19T06:49:02.545Z,5.03
2022-08-19T06:54:03.445Z,6.47
2022-08-19T06:56:34.754Z,4.05
2022-08-19T06:59:04.657Z,6.05
2022-08-19T07:01:36.106Z,4.97
2022-08-19T07:04:04.658Z,4.03
2022-08-19T07:06:44.277Z,4.72
2022-08-19T07:09:18.455Z,2.53
2022-08-19T07:11:48.503Z,2.45
2022-08-19T07:14:20.069Z,4.80
2022-08-19T07:16:49.516Z,4.25
2022-08-19T07:19:18.662Z,3.72
2022-08-19T07:21:48.310Z,4.25
2022-08-19T07:24:18.327Z,3.47
2022-08-19T07:26:47.300Z,3.25
2022-08-19T07:29:24.235Z,3.47
2022-08-19T07:31:57.274Z,2.27
2022-08-19T07:34:26.475Z,3.42
2022-08-19T07:36:55.586Z,3.60
2022-08-19T07:39:27.707Z,1.58
2022-08-19T07:41:57.293Z,5.32
2022-08-19T07:44:25.895Z,1.77
2022-08-19T07:46:56.763Z,3.43
2022-08-19T07:49:25.639Z,4.43
2022-08-19T07:51:56.848Z,5.32
2022-08-19T07:54:28.288Z,6.53
2022-08-19T07:56:57.778Z,5.15
2022-08-19T07:59:26.768Z,3.20
2022-08-19T08:01:55.145Z,3.88
2022-08-19T08:04:41.613Z,4.75
2022-08-19T08:07:31.450Z,1.70
2022-08-19T08:10:02.800Z,4.33
2022-08-19T08:12:35.396Z,2.85
2022-08-19T08:15:08.931Z,3.60
2022-08-19T08:17:51.439Z,2.60
2022-08-19T08:20:21.388Z,3.45
2022-08-19T08:23:08.205Z,3.35
2022-08-19T08:25:39.021Z,4.30
2022-08-19T08:28:09.769Z,3.67
2022-08-19T08:30:45.279Z,4.85
2022-08-19T08:33:14.014Z,3.00
2022-08-19T08:35:44.054Z,4.90
2022-08-19T08:38:12.375Z,4.03
2022-08-19T08:40:47.489Z,5.00
2022-08-19T08:43:24.377Z,3.70
2022-08-19T08:46:00.516Z,3.83
2022-08-19T08:48:38.040Z,4.22
2022-08-19T08:51:11.238Z,3.07
2022-08-19T08:53:41.978Z,4.75
2022-08-19T08:56:14.139Z,3.83
2022-08-19T08:58:56.651Z,4.70
2022-08-19T09:01:25.087Z,5.15
2022-08-19T09:04:02.800Z,4.78
2022-08-19T09:06:40.539Z,3.92
2022-08-19T09:09:16.893Z,3.17
2022-08-19T09:11:57.827Z,8.00
2022-08-19T09:14:51.563Z,4.03
2022-08-19T09:17:29.264Z,3.58
2022-08-19T09:20:00.144Z,3.88
2022-08-19T09:22:30.085Z,3.60
2022-08-19T09:24:58.501Z,3.25
2022-08-19T09:27:41.768Z,3.17
2022-08-19T09:30:14.838Z,1.17
2022-08-19T09:32:44.556Z,2.70
2022-08-19T09:35:13.658Z,3.85
2022-08-19T09:37:43.760Z,4.03
2022-08-19T09:40:13.905Z,2.22
2022-08-19T09:42:50.096Z,2.90
2022-08-19T09:45:22.907Z,2.72
2022-08-19T09:47:54.289Z,3.33
2022-08-19T09:50:24.430Z,2.70
2022-08-19T09:52:57.315Z,2.70
2022-08-19T09:55:31.726Z,2.78
2022-08-19T09:58:03.691Z,3.80
2022-08-19T10:00:32.777Z,3.83
2022-08-19T10:03:01.256Z,3.15
2022-08-19T10:05:48.708Z,4.13
2022-08-19T10:08:20.977Z,3.97
2022-08-19T10:10:50.145Z,7.07
2022-08-19T10:13:26.113Z,4.03
2022-08-19T10:15:56.215Z,3.00
2022-08-19T10:18:26.505Z,2.67
2022-08-19T10:21:04.458Z,2.85
2022-08-19T10:23:33.724Z,1.75
2022-08-19T10:26:04.442Z,1.93
2022-08-19T10:28:35.111Z,4.47
2022-08-19T10:31:08.880Z,4.18
2022-08-19T10:33:40.932Z,2.53
2022-08-19T10:36:24.823Z,3.13
2022-08-19T10:38:58.494Z,2.67
2022-08-19T10:41:29.402Z,3.08
2022-08-19T10:44:04.195Z,2.58
2022-08-19T10:46:34.113Z,4.32
2022-08-19T10:49:02.863Z,3.38
2022-08-19T10:51:49.221Z,2.78
2022-08-19T10:54:31.154Z,1.52
2022-08-19T10:57:00.535Z,2.85
2022-08-19T10:59:36.022Z,1.40
2022-08-19T11:02:06.713Z,3.45
2022-08-19T11:04:35.718Z,4.40
2022-08-19T11:07:04.791Z,2.35
2022-08-19T11:09:34.575Z,3.73
2022-08-19T11:12:04.833Z,4.75
2022-08-19T11:14:35.760Z,4.03
2022-08-19T11:17:05.220Z,5.28
2022-08-19T11:19:34.241Z,6.57
2022-08-19T11:22:04.445Z,7.82
2022-08-19T11:24:33.890Z,2.85
2022-08-19T11:27:10.248Z,3.17
2022-08-19T11:29:41.151Z,4.63
2022-08-19T11:32:11.818Z,4.32
2022-08-19T11:34:40.297Z,5.65
2022-08-19T11:37:09.969Z,3.10
2022-08-19T11:39:39.025Z,5.53
2022-08-19T11:42:29.152Z,3.67
2022-08-19T11:44:59.071Z,5.55
2022-08-19T11:47:27.465Z,3.78
2022-08-19T11:49:55.853Z,4.90
2022-08-19T11:52:24.171Z,4.63
2022-08-19T11:54:52.495Z,4.07
2022-08-19T11:57:20.934Z,3.45
2022-08-19T11:59:53.666Z,3.10
2022-08-19T12:02:24.383Z,3.78
2022-08-19T12:04:52.713Z,3.30
2022-08-19T12:07:21.512Z,4.67
2022-08-19T12:09:49.805Z,5.95
2022-08-19T12:12:18.294Z,5.47
2022-08-19T12:14:47.605Z,6.85
2022-08-19T12:17:16.295Z,4.32
2022-08-19T12:19:46.010Z,3.30
2022-08-19T12:22:14.325Z,5.30
2022-08-19T12:24:42.660Z,5.13
2022-08-19T12:27:12.866Z,3.65
2022-08-19T12:29:42.584Z,4.28
2022-08-19T12:32:12.215Z,4.22
2022-08-19T12:34:41.106Z,4.32
2022-08-19T12:37:12.028Z,3.72
2022-08-19T12:39:42.489Z,7.05
2022-08-19T12:42:11.915Z,3.58
2022-08-19T12:44:42.700Z,4.30
2022-08-19T12:47:13.367Z,5.60
2022-08-19T12:49:53.461Z,6.50
2022-08-19T12:52:25.968Z,7.07
2022-08-19T12:54:56.527Z,4.72
2022-08-19T12:57:32.545Z,6.37
2022-08-19T13:00:04.895Z,4.72
2022-08-19T13:02:38.736Z,5.15
2022-08-19T13:05:10.894Z,4.25
2022-08-19T13:07:41.929Z,6.03
2022-08-19T13:10:13.443Z,4.65
2022-08-19T13:12:42.964Z,4.93
2022-08-19T13:15:12.361Z,3.67
2022-08-19T13:17:42.163Z,3.42
2022-08-19T13:20:12.357Z,5.07
2022-08-19T13:22:42.086Z,4.55
2022-08-19T13:25:11.517Z,4.13
2022-08-19T13:27:41.007Z,4.32
2022-08-19T13:30:30.438Z,6.00
2022-08-19T13:33:16.259Z,6.03
2022-08-19T13:35:47.981Z,9.30
2022-08-19T13:38:21.533Z,5.00
2022-08-19T13:40:52.547Z,5.68
2022-08-19T13:43:23.784Z,5.05
2022-08-19T13:45:56.452Z,3.53
2022-08-19T13:48:27.477Z,4.57
2022-08-19T13:50:56.222Z,4.05
2022-08-19T13:53:26.151Z,6.50
2022-08-19T13:55:55.027Z,4.00
2022-08-19T13:58:23.572Z,5.45
2022-08-19T14:00:51.940Z,5.20
2022-08-19T14:03:20.701Z,3.47
2022-08-19T14:05:49.116Z,6.35
2022-08-19T14:08:17.525Z,5.30
2022-08-19T14:10:47.667Z,6.53
2022-08-19T14:13:18.877Z,3.88
2022-08-19T14:15:48.319Z,4.45
2022-08-19T14:18:17.076Z,2.72
2022-08-19T14:20:46.209Z,4.70
2022-08-19T14:23:14.797Z,4.05
2022-08-19T14:25:44.077Z,3.50
2022-08-19T14:28:13.805Z,4.13
2022-08-19T14:30:45.553Z,4.68
2022-08-19T14:33:14.999Z,3.50
2022-08-19T14:35:46.030Z,3.08
2022-08-19T14:38:24.629Z,3.20
2022-08-19T14:41:13.292Z,4.30
2022-08-19T14:43:43.308Z,2.55
2022-08-19T14:49:00.318Z,4.03
2022-08-19T14:51:28.710Z,2.10
2022-08-19T14:53:57.250Z,2.90
2022-08-19T14:56:27.284Z,2.10
2022-08-19T14:59:01.403Z,2.80
2022-08-19T15:01:30.057Z,2.17
2022-08-19T15:03:58.413Z,2.77
2022-08-19T15:06:27.398Z,2.47
2022-08-19T15:08:57.036Z,4.53
2022-08-19T15:11:28.856Z,2.60
2022-08-19T15:13:58.946Z,1.93
2022-08-19T15:16:28.846Z,2.85
2022-08-19T15:18:59.997Z,3.55
2022-08-19T15:21:29.795Z,2.30
2022-08-19T15:24:00.066Z,2.63
2022-08-19T15:26:29.117Z,3.58
2022-08-19T15:29:09.637Z,3.08
2022-08-19T15:31:38.048Z,2.38
2022-08-19T15:34:07.691Z,2.80
2022-08-19T15:36:38.663Z,3.05
2022-08-19T15:39:10.168Z,3.03
2022-08-19T15:41:41.235Z,4.03
2022-08-19T15:44:14.730Z,2.85
2022-08-19T15:46:45.408Z,1.50
2022-08-19T15:49:15.833Z,1.80
2022-08-19T15:51:46.284Z,2.22
2022-08-19T15:54:16.521Z,1.40
2022-08-19T15:57:01.852Z,2.10
2022-08-19T15:59:48.785Z,1.30
2022-08-19T16:02:37.052Z,1.85
2022-08-19T16:05:26.850Z,1.13
2022-08-19T16:07:55.411Z,1.48
2022-08-19T16:10:27.089Z,4.75
2022-08-19T16:12:57.047Z,3.35
2022-08-19T16:15:28.129Z,1.65
2022-08-19T16:17:57.666Z,1.98
2022-08-19T16:20:28.676Z,2.88
2022-08-19T16:22:58.524Z,2.25
2022-08-19T16:25:30.034Z,1.47
2022-08-19T16:28:07.844Z,3.78
2022-08-19T16:30:40.199Z,1.48
2022-08-19T16:33:09.777Z,2.13
2022-08-19T16:35:38.633Z,1.40
2022-08-19T16:38:07.216Z,1.70
2022-08-19T16:40:36.042Z,2.90
2022-08-19T16:43:04.940Z,1.67
2022-08-19T16:45:33.347Z,1.50
2022-08-19T16:48:03.985Z,2.28
2022-08-19T16:50:48.624Z,2.80
2022-08-19T16:53:18.251Z,1.40
2022-08-19T16:55:50.990Z,1.60
2022-08-19T16:58:19.557Z,1.48
2022-08-19T17:00:48.585Z,2.38
2022-08-19T17:03:19.788Z,2.78
2022-08-19T17:06:04.260Z,1.05
2022-08-19T17:08:34.378Z,1.13
2022-08-19T17:11:17.611Z,1.75
2022-08-19T17:13:47.714Z,1.52
2022-08-19T17:16:17.329Z,3.05
2022-08-19T17:18:50.511Z,3.53
2022-08-19T17:21:18.851Z,2.20
2022-08-19T17:23:47.146Z,1.10
2022-08-19T17:26:18.324Z,2.15
2022-08-19T17:28:49.135Z,1.90
2022-08-19T17:31:19.162Z,2.13
2022-08-19T17:33:49.150Z,2.45
2022-08-19T17:36:18.591Z,4.30
2022-08-19T17:38:47.912Z,1.35
2022-08-19T17:41:16.411Z,1.48
2022-08-19T17:43:46.282Z,2.58
2022-08-19T17:46:18.689Z,1.83
2022-08-19T17:48:52.715Z,1.23
2022-08-19T17:51:25.340Z,1.60
2022-08-19T17:53:55.554Z,1.48
2022-08-19T17:56:25.262Z,1.42
2022-08-19T17:59:00.145Z,2.00
2022-08-19T18:01:43.917Z,2.75
2022-08-19T18:04:21.204Z,1.50
2022-08-19T18:06:53.181Z,2.15
2022-08-19T18:09:23.770Z,1.88
2022-08-19T18:11:53.780Z,2.10
2022-08-19T18:14:28.035Z,1.73
2022-08-19T18:17:01.336Z,1.90
2022-08-19T18:22:25.308Z,1.80
2022-08-19T18:27:40.052Z,1.40
2022-08-19T18:30:10.167Z,1.58
2022-08-19T18:32:42.352Z,1.70
2022-08-19T18:35:15.913Z,3.42
2022-08-19T18:37:45.904Z,1.88
2022-08-19T18:40:35.620Z,3.00
2022-08-19T18:43:17.952Z,3.72
2022-08-19T18:46:04.515Z,1.88
2022-08-19T18:49:01.948Z,4.43
2022-08-19T18:51:32.169Z,1.80
2022-08-19T18:54:01.665Z,1.80
2022-08-19T18:56:32.387Z,1.37
2022-08-19T18:59:01.924Z,1.85
2022-08-19T19:01:32.794Z,1.80
2022-08-19T19:04:06.327Z,3.20
2022-08-19T19:06:40.334Z,2.45
2022-08-19T19:09:10.514Z,0.73
2022-08-19T19:11:42.608Z,1.65
2022-08-19T19:14:23.305Z,0.52
2022-08-19T19:17:02.095Z,1.75
2022-08-19T19:19:31.287Z,2.80
2022-08-19T19:22:01.117Z,2.40
2022-08-19T19:24:32.560Z,1.20
2022-08-19T19:27:06.153Z,1.02
2022-08-19T19:29:36.704Z,1.40
2022-08-19T19:32:07.163Z,1.35
2022-08-19T19:34:36.107Z,2.83
2022-08-19T19:37:06.241Z,1.75
2022-08-19T19:39:46.591Z,3.60
2022-08-19T19:42:19.894Z,1.90
2022-08-19T19:44:50.645Z,1.02
2022-08-19T19:47:19.543Z,1.30
2022-08-19T19:50:13.895Z,1.10
2022-08-19T19:52:41.781Z,2.33
2022-08-19T19:55:18.355Z,1.70
2022-08-19T19:57:47.335Z,1.70
2022-08-19T20:00:18.599Z,2.47
2022-08-19T20:02:50.064Z,1.20
2022-08-19T20:05:21.416Z,0.85
2022-08-19T20:08:10.342Z,2.28
2022-08-19T20:10:39.229Z,1.33
2022-08-19T20:13:08.849Z,1.35
2022-08-19T20:15:42.404Z,1.88
2022-08-19T20:18:11.809Z,1.73
2022-08-19T20:20:40.149Z,1.45
2022-08-19T20:23:09.941Z,0.98
2022-08-19T20:25:39.473Z,0.82
2022-08-19T20:28:07.845Z,1.13
2022-08-19T20:30:39.535Z,1.27
2022-08-19T20:33:13.954Z,1.33
2022-08-19T20:35:42.761Z,0.47
2022-08-19T20:38:12.633Z,1.40
2022-08-19T20:40:41.312Z,1.10
2022-08-19T20:43:12.187Z,1.52
2022-08-19T20:45:41.028Z,1.77
2022-08-19T20:48:12.582Z,0.83
2022-08-19T20:50:41.042Z,1.92
2022-08-19T20:53:16.782Z,1.80
2022-08-19T20:55:46.580Z,1.75
2022-08-19T20:58:15.159Z,1.98
2022-08-19T21:00:45.708Z,2.47
2022-08-19T21:03:15.549Z,1.98
2022-08-19T21:05:45.717Z,1.10
2022-08-19T21:08:18.269Z,2.03
2022-08-19T21:10:46.869Z,1.98
2022-08-19T21:13:15.658Z,1.63
2022-08-19T21:15:45.522Z,2.63
2022-08-19T21:18:15.518Z,1.65
2022-08-19T21:20:45.199Z,1.70
2022-08-19T21:23:17.522Z,1.10
2022-08-19T21:25:54.027Z,0.98
2022-08-19T21:28:34.308Z,1.65
2022-08-19T21:31:06.307Z,1.80
2022-08-19T21:33:34.712Z,1.43
2022-08-19T21:36:03.217Z,3.20
2022-08-19T21:38:33.316Z,1.70
2022-08-19T21:41:04.286Z,4.65
2022-08-19T21:43:34.944Z,1.73
2022-08-19T21:46:03.557Z,3.85
2022-08-19T21:48:31.958Z,2.00
2022-08-19T21:51:00.255Z,2.97
2022-08-19T21:53:34.142Z,2.58
2022-08-19T21:56:05.537Z,3.42
2022-08-19T21:58:34.582Z,1.90
2022-08-19T22:01:07.748Z,1.73
2022-08-19T22:03:38.039Z,3.13
2022-08-19T22:06:06.599Z,2.20
2022-08-19T22:08:35.026Z,3.38
2022-08-19T22:11:05.513Z,2.15
2022-08-19T22:13:40.071Z,1.60
2022-08-19T22:16:09.664Z,3.03
2022-08-19T22:18:37.986Z,3.35
2022-08-19T22:21:11.399Z,1.20
2022-08-19T22:23:40.647Z,1.98
2022-08-19T22:26:10.570Z,3.13
2022-08-19T22:28:39.575Z,1.35
2022-08-19T22:31:08.525Z,2.88
2022-08-19T22:33:38.410Z,3.53
2022-08-19T22:36:08.623Z,2.55
2022-08-19T22:38:38.435Z,3.60
2022-08-19T22:41:08.137Z,2.38
2022-08-19T22:43:38.110Z,2.53
2022-08-19T22:46:16.829Z,2.65
2022-08-19T22:48:46.934Z,2.13
2022-08-19T22:51:32.766Z,3.92
2022-08-19T22:54:03.228Z,3.13
2022-08-19T22:56:31.558Z,3.47
2022-08-19T22:59:03.557Z,4.07
2022-08-19T23:01:32.410Z,3.60
2022-08-19T23:04:03.805Z,2.72
2022-08-19T23:06:33.953Z,1.85
2022-08-19T23:09:05.153Z,2.25
2022-08-19T23:11:38.127Z,1.67
2022-08-19T23:14:12.708Z,2.88
2022-08-19T23:16:41.937Z,4.50
2022-08-19T23:19:11.187Z,3.30
2022-08-19T23:21:39.735Z,2.80
2022-08-19T23:24:08.836Z,2.55
2022-08-19T23:26:37.239Z,1.60
2022-08-19T23:29:24.326Z,1.80
2022-08-19T23:31:54.077Z,3.72
2022-08-19T23:34:22.926Z,2.47
2022-08-19T23:36:51.594Z,2.80
2022-08-19T23:39:20.240Z,1.45
2022-08-19T23:41:48.558Z,1.63
2022-08-19T23:44:17.554Z,2.95
2022-08-19T23:46:55.220Z,1.77
2022-08-19T23:49:26.468Z,2.60
2022-08-19T23:51:56.306Z,2.35
2022-08-19T23:54:35.225Z,3.10
2022-08-19T23:57:13.837Z,1.80
2022-08-19T23:59:45.572Z,4.38
